createdAt,value
2018-01-02T00:02:07.938Z,0.90
2018-01-02T00:04:35.479Z,1.00
2018-01-02T00:07:02.979Z,1.03
2018-01-02T00:09:31.251Z,1.00
2018-01-02T00:11:59.536Z,1.00
2018-01-02T00:14:27.021Z,1.10
2018-01-02T00:16:54.647Z,1.13
2018-01-02T00:19:22.182Z,1.20
2018-01-02T00:21:49.682Z,1.13
2018-01-02T00:24:17.215Z,0.90
2018-01-02T00:26:45.467Z,1.00
2018-01-02T00:29:12.963Z,1.20
2018-01-02T00:31:40.479Z,1.10
2018-01-02T00:34:07.973Z,1.10
2018-01-02T00:36:35.491Z,1.10
2018-01-02T00:39:03.107Z,1.10
2018-01-02T00:41:30.619Z,1.10
2018-01-02T00:43:58.148Z,1.00
2018-01-02T00:46:25.643Z,1.00
2018-01-02T00:48:53.911Z,1.00
2018-01-02T00:51:22.192Z,0.80
2018-01-02T00:53:50.472Z,0.80
2018-01-02T00:56:18.737Z,0.87
2018-01-02T00:58:46.264Z,1.13
2018-01-02T01:01:13.760Z,0.80
2018-01-02T01:03:42.020Z,0.93
2018-01-02T01:06:09.555Z,0.90
2018-01-02T01:08:37.040Z,0.90
2018-01-02T01:11:04.580Z,0.80
2018-01-02T01:13:32.850Z,0.83
2018-01-02T01:16:00.332Z,0.90
2018-01-02T01:18:27.882Z,0.70
2018-01-02T01:20:55.624Z,0.80
2018-01-02T01:23:23.137Z,0.80
2018-01-02T01:25:50.854Z,0.90
2018-01-02T01:28:18.734Z,0.90
2018-01-02T01:30:46.576Z,0.80
2018-01-02T01:33:14.853Z,0.90
2018-01-02T01:35:42.380Z,0.90
2018-01-02T01:38:09.884Z,0.80
2018-01-02T01:40:37.414Z,0.87
2018-01-02T01:43:04.952Z,0.90
2018-01-02T01:45:33.211Z,0.90
2018-01-02T01:48:00.750Z,0.90
2018-01-02T01:50:29.008Z,0.90
2018-01-02T01:52:58.145Z,1.10
2018-01-02T01:55:25.666Z,0.90
2018-01-02T01:57:53.148Z,0.80
2018-01-02T02:00:20.636Z,1.07
2018-01-02T02:02:48.151Z,1.20
2018-01-02T02:05:16.407Z,0.80
2018-01-02T02:07:43.941Z,1.00
2018-01-02T02:10:11.444Z,1.00
2018-01-02T02:12:38.944Z,0.87
2018-01-02T02:15:06.449Z,1.00
2018-01-02T02:17:34.775Z,0.90
2018-01-02T02:20:02.279Z,1.00
2018-01-02T02:22:30.539Z,0.97
2018-01-02T02:24:58.059Z,1.27
2018-01-02T02:27:25.560Z,1.20
2018-01-02T02:29:53.048Z,0.90
2018-01-02T02:32:20.579Z,1.20
2018-01-02T02:34:48.104Z,1.00
2018-01-02T02:37:15.626Z,1.57
2018-01-02T02:39:43.127Z,1.20
2018-01-02T02:42:10.623Z,0.87
2018-01-02T02:44:38.935Z,0.90
2018-01-02T02:47:06.431Z,1.20
2018-01-02T02:49:33.928Z,1.57
2018-01-02T02:52:01.447Z,1.10
2018-01-02T02:54:28.968Z,1.07
2018-01-02T02:56:56.547Z,1.00
2018-01-02T02:59:24.028Z,1.10
2018-01-02T03:01:51.524Z,1.00
2018-01-02T03:04:19.035Z,1.03
2018-01-02T03:06:46.533Z,1.07
2018-01-02T03:09:14.087Z,1.10
2018-01-02T03:11:41.600Z,1.20
2018-01-02T03:14:09.159Z,1.00
2018-01-02T03:16:36.688Z,1.30
2018-01-02T03:19:04.175Z,1.00
2018-01-02T03:21:31.678Z,0.90
2018-01-02T03:23:59.232Z,1.10
2018-01-02T03:26:26.723Z,1.03
2018-01-02T03:28:54.236Z,1.13
2018-01-02T03:31:22.495Z,1.00
2018-01-02T03:33:50.031Z,1.07
2018-01-02T03:36:17.516Z,1.10
2018-01-02T03:38:45.765Z,1.23
2018-01-02T03:41:13.280Z,2.03
2018-01-02T03:43:40.788Z,1.00
2018-01-02T03:46:08.312Z,1.33
2018-01-02T03:48:35.811Z,1.33
2018-01-02T03:51:03.301Z,0.90
2018-01-02T03:53:30.812Z,1.10
2018-01-02T03:55:58.300Z,1.00
2018-01-02T03:58:26.603Z,1.00
2018-01-02T04:00:54.101Z,1.00
2018-01-02T04:03:21.651Z,1.10
2018-01-02T04:05:49.140Z,1.00
2018-01-02T04:08:17.422Z,1.00
2018-01-02T04:10:45.700Z,1.07
2018-01-02T04:13:13.955Z,0.90
2018-01-02T04:15:41.461Z,1.10
2018-01-02T04:18:08.957Z,1.00
2018-01-02T04:20:36.442Z,1.47
2018-01-02T04:23:05.219Z,1.20
2018-01-02T04:25:33.471Z,1.50
2018-01-02T04:28:01.016Z,1.00
2018-01-02T04:30:28.499Z,1.00
2018-01-02T04:32:56.015Z,1.20
2018-01-02T04:35:23.534Z,0.80
2018-01-02T04:37:51.787Z,1.00
2018-01-02T04:40:19.310Z,1.00
2018-01-02T04:42:46.804Z,0.87
2018-01-02T04:45:14.322Z,0.90
2018-01-02T04:47:41.856Z,0.90
2018-01-02T04:50:09.349Z,1.00
2018-01-02T04:52:36.854Z,0.77
2018-01-02T04:55:05.111Z,0.70
2018-01-02T04:57:33.407Z,0.90
2018-01-02T05:00:01.736Z,0.90
2018-01-02T05:02:29.262Z,0.80
2018-01-02T05:04:56.771Z,0.73
2018-01-02T05:07:24.263Z,0.90
2018-01-02T05:09:52.540Z,0.80
2018-01-02T05:12:20.024Z,0.83
2018-01-02T05:14:47.547Z,0.80
2018-01-02T05:17:15.812Z,1.03
2018-01-02T05:19:44.071Z,1.10
2018-01-02T05:22:11.594Z,1.03
2018-01-02T05:24:39.080Z,0.97
2018-01-02T05:27:06.568Z,1.00
2018-01-02T05:29:34.839Z,1.17
2018-01-02T05:32:03.083Z,0.80
2018-01-02T05:34:30.591Z,1.00
2018-01-02T05:36:58.086Z,1.00
2018-01-02T05:39:25.603Z,0.90
2018-01-02T05:41:53.143Z,1.00
2018-01-02T05:44:21.403Z,1.10
2018-01-02T05:46:48.907Z,0.90
2018-01-02T05:49:16.464Z,1.03
2018-01-02T05:51:43.979Z,0.80
2018-01-02T05:54:12.261Z,0.97
2018-01-02T05:56:40.550Z,0.90
2018-01-02T05:59:08.831Z,1.07
2018-01-02T06:01:36.362Z,1.57
2018-01-02T06:04:03.877Z,0.90
2018-01-02T06:06:31.400Z,1.20
2018-01-02T06:08:58.944Z,1.17
2018-01-02T06:11:27.219Z,0.90
2018-01-02T06:13:55.481Z,1.00
2018-01-02T06:16:23.019Z,1.00
2018-01-02T06:18:50.511Z,1.07
2018-01-02T06:21:18.779Z,1.40
2018-01-02T06:23:46.284Z,1.43
2018-01-02T06:26:13.766Z,1.00
2018-01-02T06:28:41.276Z,1.47
2018-01-02T06:31:08.770Z,1.30
2018-01-02T06:33:36.275Z,1.20
2018-01-02T06:36:04.523Z,1.10
2018-01-02T06:38:32.040Z,1.30
2018-01-02T06:40:59.540Z,1.30
2018-01-02T06:43:27.049Z,1.97
2018-01-02T06:45:54.567Z,1.30
2018-01-02T06:48:22.059Z,1.30
2018-01-02T06:50:49.563Z,1.20
2018-01-02T06:53:17.063Z,1.73
2018-01-02T06:55:44.553Z,1.57
2018-01-02T06:58:12.083Z,1.30
2018-01-02T07:00:39.571Z,1.20
2018-01-02T07:03:07.083Z,1.20
2018-01-02T07:05:35.370Z,1.83
2018-01-02T07:08:02.854Z,1.20
2018-01-02T07:10:30.367Z,1.10
2018-01-02T07:12:58.700Z,1.23
2018-01-02T07:15:26.185Z,1.07
2018-01-02T07:17:53.696Z,1.30
2018-01-02T07:20:21.180Z,1.00
2018-01-02T07:22:48.717Z,1.20
2018-01-02T07:25:16.207Z,1.10
2018-01-02T07:27:43.716Z,1.00
2018-01-02T07:30:11.232Z,1.23
2018-01-02T07:32:39.496Z,1.27
2018-01-02T07:35:08.527Z,1.20
2018-01-02T07:37:36.073Z,1.20
2018-01-02T07:40:03.554Z,0.97
2018-01-02T07:42:31.078Z,1.10
2018-01-02T07:44:58.563Z,1.50
2018-01-02T07:47:26.133Z,1.20
2018-01-02T07:49:53.653Z,1.60
2018-01-02T07:52:21.931Z,1.20
2018-01-02T07:54:50.183Z,1.13
2018-01-02T07:57:17.705Z,1.10
2018-01-02T07:59:45.212Z,1.20
2018-01-02T08:02:12.699Z,1.50
2018-01-02T08:04:40.227Z,1.37
2018-01-02T08:07:07.725Z,1.20
2018-01-02T08:09:35.260Z,1.30
2018-01-02T08:12:03.521Z,1.30
2018-01-02T08:14:31.801Z,1.13
2018-01-02T08:17:00.060Z,1.00
2018-01-02T08:19:27.556Z,1.10
2018-01-02T08:21:55.067Z,1.40
2018-01-02T08:24:22.584Z,1.27
2018-01-02T08:26:50.115Z,1.30
2018-01-02T08:29:18.379Z,1.17
2018-01-02T08:31:46.627Z,1.30
2018-01-02T08:34:14.144Z,1.50
2018-01-02T08:36:41.632Z,1.60
2018-01-02T08:39:09.148Z,1.30
2018-01-02T08:41:36.700Z,1.47
2018-01-02T08:44:04.191Z,1.33
2018-01-02T08:46:31.703Z,1.50
2018-01-02T08:48:59.956Z,1.60
2018-01-02T08:51:27.477Z,1.60
2018-01-02T08:53:54.960Z,1.90
2018-01-02T08:56:22.471Z,1.57
2018-01-02T08:58:49.984Z,1.60
2018-01-02T09:01:18.240Z,2.30
2018-01-02T09:03:45.789Z,1.50
2018-01-02T09:06:13.290Z,1.83
2018-01-02T09:08:41.543Z,2.07
2018-01-02T09:11:09.072Z,1.70
2018-01-02T09:13:42.162Z,2.10
2018-01-02T09:16:09.679Z,1.90
2018-01-02T09:18:37.944Z,2.30
2018-01-02T09:21:06.250Z,1.73
2018-01-02T09:23:33.736Z,1.43
2018-01-02T09:26:01.261Z,1.70
2018-01-02T09:28:28.790Z,1.70
2018-01-02T09:30:56.323Z,1.73
2018-01-02T09:33:23.812Z,1.37
2018-01-02T09:35:52.060Z,1.73
2018-01-02T09:38:19.574Z,1.10
2018-01-02T09:40:47.119Z,1.50
2018-01-02T09:43:14.604Z,1.50
2018-01-02T09:45:42.094Z,1.50
2018-01-02T09:48:09.623Z,1.50
2018-01-02T09:50:37.171Z,1.60
2018-01-02T09:53:05.384Z,2.00
2018-01-02T09:55:32.896Z,1.83
2018-01-02T09:58:00.396Z,1.93
2018-01-02T10:00:28.699Z,1.43
2018-01-02T10:02:57.078Z,1.90
2018-01-02T10:05:25.339Z,1.60
2018-01-02T10:07:52.858Z,1.43
2018-01-02T10:10:20.360Z,1.70
2018-01-02T10:12:48.643Z,1.63
2018-01-02T10:15:16.900Z,1.20
2018-01-02T10:17:45.218Z,1.93
2018-01-02T10:20:12.715Z,1.60
2018-01-02T10:22:40.207Z,1.63
2018-01-02T10:25:08.511Z,1.67
2018-01-02T10:27:36.011Z,1.50
2018-01-02T10:30:03.594Z,1.97
2018-01-02T10:32:31.867Z,1.80
2018-01-02T10:35:00.127Z,1.87
2018-01-02T10:37:27.713Z,1.60
2018-01-02T10:39:55.272Z,1.90
2018-01-02T10:42:22.791Z,1.33
2018-01-02T10:44:50.294Z,1.53
2018-01-02T10:47:17.811Z,1.40
2018-01-02T10:49:45.302Z,2.20
2018-01-02T10:52:13.555Z,2.00
2018-01-02T10:54:41.087Z,1.60
2018-01-02T10:57:08.579Z,1.90
2018-01-02T10:59:36.870Z,1.80
2018-01-02T11:02:04.389Z,1.47
2018-01-02T11:04:31.884Z,1.40
2018-01-02T11:06:59.403Z,1.50
2018-01-02T11:09:28.408Z,1.57
2018-01-02T11:11:58.897Z,1.30
2018-01-02T11:14:39.169Z,1.43
2018-01-02T11:17:06.702Z,1.67
2018-01-02T11:19:34.192Z,1.80
2018-01-02T11:22:01.736Z,1.97
2018-01-02T11:24:29.261Z,1.70
2018-01-02T11:26:56.773Z,1.70
2018-01-02T11:29:24.292Z,1.10
2018-01-02T11:31:51.823Z,1.50
2018-01-02T11:34:19.350Z,1.40
2018-01-02T11:36:46.854Z,1.40
2018-01-02T11:39:14.343Z,1.63
2018-01-02T11:41:41.879Z,1.60
2018-01-02T11:44:09.382Z,1.43
2018-01-02T11:46:36.896Z,1.67
2018-01-02T11:49:04.401Z,1.10
2018-01-02T11:51:32.685Z,1.67
2018-01-02T11:54:00.966Z,1.70
2018-01-02T11:56:29.271Z,1.30
2018-01-02T11:58:56.786Z,1.40
2018-01-02T12:01:25.077Z,1.70
2018-01-02T12:03:53.357Z,1.30
2018-01-02T12:06:21.612Z,1.47
2018-01-02T12:08:49.900Z,2.17
2018-01-02T12:11:18.162Z,1.60
2018-01-02T12:13:46.463Z,1.30
2018-01-02T12:16:14.008Z,1.53
2018-01-02T12:18:42.304Z,1.57
2018-01-02T12:21:09.881Z,1.40
2018-01-02T12:23:37.376Z,2.40
2018-01-02T12:26:04.889Z,1.20
2018-01-02T12:28:32.428Z,1.53
2018-01-02T12:31:00.742Z,1.60
2018-01-02T12:33:28.243Z,1.60
2018-01-02T12:35:56.551Z,1.30
2018-01-02T12:38:24.059Z,1.90
2018-01-02T12:40:53.096Z,1.50
2018-01-02T12:43:20.614Z,1.47
2018-01-02T12:45:49.642Z,2.03
2018-01-02T12:48:17.208Z,1.70
2018-01-02T12:50:44.723Z,1.90
2018-01-02T12:53:12.278Z,2.50
2018-01-02T12:55:41.312Z,1.93
2018-01-02T12:58:08.831Z,2.07
2018-01-02T13:00:37.843Z,1.70
2018-01-02T13:03:06.113Z,1.73
2018-01-02T13:05:34.417Z,1.63
2018-01-02T13:08:01.916Z,1.97
2018-01-02T13:10:29.424Z,2.20
2018-01-02T13:12:56.943Z,2.10
2018-01-02T13:15:24.484Z,1.60
2018-01-02T13:17:52.031Z,1.50
2018-01-02T13:20:19.653Z,2.00
2018-01-02T13:22:47.191Z,1.90
2018-01-02T13:25:15.472Z,1.40
2018-01-02T13:27:43.731Z,2.17
2018-01-02T13:30:11.268Z,1.23
2018-01-02T13:32:38.779Z,1.17
2018-01-02T13:35:06.308Z,1.63
2018-01-02T13:37:33.799Z,1.20
2018-01-02T13:40:01.308Z,1.03
2018-01-02T13:42:28.836Z,1.63
2018-01-02T13:44:56.343Z,1.07
2018-01-02T13:47:23.871Z,1.10
2018-01-02T13:49:51.358Z,1.13
2018-01-02T13:52:18.879Z,1.30
2018-01-02T13:54:46.390Z,1.20
2018-01-02T13:57:13.908Z,1.60
2018-01-02T13:59:41.471Z,1.30
2018-01-02T14:02:08.972Z,1.70
2018-01-02T14:04:36.504Z,1.70
2018-01-02T14:07:04.004Z,1.73
2018-01-02T14:09:31.516Z,2.53
2018-01-02T14:11:59.808Z,2.97
2018-01-02T14:14:28.080Z,2.47
2018-01-02T14:16:56.379Z,2.20
2018-01-02T14:19:23.876Z,2.03
2018-01-02T14:21:51.435Z,2.20
2018-01-02T14:24:18.983Z,2.17
2018-01-02T14:26:46.492Z,2.20
2018-01-02T14:29:14.767Z,1.63
2018-01-02T14:31:43.039Z,1.90
2018-01-02T14:34:11.664Z,1.47
2018-01-02T14:36:39.155Z,2.40
2018-01-02T14:39:06.688Z,2.47
2018-01-02T14:41:34.219Z,2.40
2018-01-02T14:44:01.745Z,2.70
2018-01-02T14:46:30.004Z,2.30
2018-01-02T14:48:57.535Z,2.20
2018-01-02T14:51:25.908Z,2.80
2018-01-02T14:53:53.408Z,2.50
2018-01-02T14:56:21.698Z,2.83
2018-01-02T14:58:49.998Z,2.30
2018-01-02T15:01:17.516Z,2.03
2018-01-02T15:03:45.818Z,2.33
2018-01-02T15:06:13.616Z,2.13
2018-01-02T15:08:41.447Z,2.00
2018-01-02T15:11:08.942Z,2.10
2018-01-02T15:13:36.445Z,2.30
2018-01-02T15:16:04.772Z,1.80
2018-01-02T15:18:32.273Z,2.10
2018-01-02T15:21:00.544Z,2.40
2018-01-02T15:23:28.838Z,2.30
2018-01-02T15:25:56.350Z,1.60
2018-01-02T15:28:23.865Z,2.53
2018-01-02T15:30:51.399Z,2.17
2018-01-02T15:33:19.684Z,2.03
2018-01-02T15:35:47.936Z,3.23
2018-01-02T15:38:15.473Z,2.10
2018-01-02T15:40:42.984Z,1.97
2018-01-02T15:43:10.508Z,2.67
2018-01-02T15:45:38.818Z,2.30
2018-01-02T15:48:06.316Z,2.73
2018-01-02T15:50:33.853Z,3.00
2018-01-02T15:53:01.390Z,2.80
2018-01-02T15:55:28.940Z,3.10
2018-01-02T15:57:57.247Z,3.17
2018-01-02T16:00:24.782Z,2.57
2018-01-02T16:02:52.334Z,2.70
2018-01-02T16:05:19.847Z,3.20
2018-01-02T16:07:47.373Z,2.73
2018-01-02T16:10:14.886Z,3.30
2018-01-02T16:12:43.215Z,2.80
2018-01-02T16:15:10.722Z,2.33
2018-01-02T16:17:39.018Z,3.10
2018-01-02T16:20:06.554Z,3.30
2018-01-02T16:22:34.824Z,2.87
2018-01-02T16:25:02.457Z,3.03
2018-01-02T16:27:29.962Z,3.03
2018-01-02T16:29:58.257Z,2.63
2018-01-02T16:32:25.772Z,2.80
2018-01-02T16:34:53.282Z,2.80
2018-01-02T16:37:20.844Z,3.13
2018-01-02T16:39:48.349Z,2.90
2018-01-02T16:42:15.888Z,2.97
2018-01-02T16:44:43.404Z,3.33
2018-01-02T16:47:10.917Z,3.47
2018-01-02T16:49:38.444Z,3.23
2018-01-02T16:52:05.941Z,3.80
2018-01-02T16:54:34.280Z,3.50
2018-01-02T16:57:01.808Z,2.63
2018-01-02T16:59:29.343Z,3.30
2018-01-02T17:01:57.654Z,2.70
2018-01-02T17:04:25.162Z,3.73
2018-01-02T17:06:52.692Z,2.93
2018-01-02T17:09:20.207Z,2.97
2018-01-02T17:11:47.768Z,3.70
2018-01-02T17:14:15.258Z,2.97
2018-01-02T17:16:42.763Z,2.77
2018-01-02T17:19:11.056Z,3.10
2018-01-02T17:21:38.641Z,3.40
2018-01-02T17:24:06.598Z,2.50
2018-01-02T17:26:34.466Z,3.20
2018-01-02T17:29:02.455Z,4.33
2018-01-02T17:31:31.227Z,3.10
2018-01-02T17:33:59.195Z,3.30
2018-01-02T17:36:27.369Z,3.30
2018-01-02T17:38:55.329Z,2.30
2018-01-02T17:41:23.418Z,3.97
2018-01-02T17:43:52.186Z,2.97
2018-01-02T17:46:20.981Z,2.90
2018-01-02T17:48:48.942Z,3.17
2018-01-02T17:51:16.706Z,3.50
2018-01-02T17:53:44.472Z,3.00
2018-01-02T17:56:12.233Z,3.70
2018-01-02T17:58:39.944Z,4.57
2018-01-02T18:01:08.370Z,3.53
2018-01-02T18:03:35.959Z,3.87
2018-01-02T18:06:03.554Z,3.80
2018-01-02T18:08:31.911Z,4.23
2018-01-02T18:10:59.434Z,3.70
2018-01-02T18:13:26.951Z,4.63
2018-01-02T18:15:55.265Z,4.70
2018-01-02T18:18:22.825Z,3.30
2018-01-02T18:20:50.480Z,3.83
2018-01-02T18:23:18.032Z,3.57
2018-01-02T18:25:45.558Z,4.60
2018-01-02T18:28:13.817Z,4.83
2018-01-02T18:30:41.402Z,4.23
2018-01-02T18:33:09.771Z,4.40
2018-01-02T18:35:38.033Z,5.17
2018-01-02T18:38:05.567Z,3.70
2018-01-02T18:40:33.074Z,4.20
2018-01-02T18:43:01.414Z,3.50
2018-01-02T18:45:28.957Z,4.67
2018-01-02T18:47:56.495Z,3.30
2018-01-02T18:50:24.029Z,4.00
2018-01-02T18:52:51.596Z,3.87
2018-01-02T18:55:19.190Z,4.40
2018-01-02T18:57:46.802Z,4.90
2018-01-02T19:00:14.423Z,4.33
2018-01-02T19:02:42.015Z,4.57
2018-01-02T19:05:10.406Z,5.00
2018-01-02T19:07:38.087Z,3.97
2018-01-02T19:10:05.684Z,4.60
2018-01-02T19:12:33.440Z,4.50
2018-01-02T19:15:01.078Z,4.77
2018-01-02T19:17:28.860Z,4.93
2018-01-02T19:19:56.662Z,4.13
2018-01-02T19:22:25.068Z,4.00
2018-01-02T19:24:52.784Z,4.30
2018-01-02T19:27:20.388Z,5.20
2018-01-02T19:29:48.017Z,4.33
2018-01-02T19:32:16.559Z,5.97
2018-01-02T19:34:44.195Z,6.13
2018-01-02T19:37:11.873Z,4.40
2018-01-02T19:39:39.538Z,4.37
2018-01-02T19:42:07.239Z,4.50
2018-01-02T19:44:34.891Z,4.17
2018-01-02T19:47:02.533Z,4.70
2018-01-02T19:49:30.340Z,5.40
2018-01-02T19:51:57.960Z,4.10
2018-01-02T19:54:25.640Z,3.80
2018-01-02T19:56:53.310Z,3.90
2018-01-02T19:59:21.782Z,3.30
2018-01-02T20:01:50.195Z,4.37
2018-01-02T20:04:17.992Z,4.20
2018-01-02T20:06:45.840Z,4.27
2018-01-02T20:09:13.604Z,4.03
2018-01-02T20:11:41.363Z,4.37
2018-01-02T20:14:09.001Z,4.40
2018-01-02T20:16:36.696Z,4.53
2018-01-02T20:19:04.478Z,3.40
2018-01-02T20:21:32.226Z,3.80
2018-01-02T20:24:00.396Z,4.43
2018-01-02T20:26:28.286Z,3.20
2018-01-02T20:28:55.926Z,4.73
2018-01-02T20:31:24.454Z,3.17
2018-01-02T20:33:52.904Z,3.63
2018-01-02T20:36:20.554Z,3.73
2018-01-02T20:38:48.277Z,3.03
2018-01-02T20:41:15.871Z,2.53
2018-01-02T20:43:43.620Z,3.10
2018-01-02T20:46:11.265Z,4.50
2018-01-02T20:48:39.045Z,3.70
2018-01-02T20:51:06.721Z,2.83
2018-01-02T20:53:34.346Z,3.13
2018-01-02T20:56:01.978Z,3.43
2018-01-02T20:58:29.596Z,3.40
2018-01-02T21:00:57.313Z,3.40
2018-01-02T21:03:25.734Z,4.50
2018-01-02T21:05:53.354Z,2.87
2018-01-02T21:08:21.763Z,3.20
2018-01-02T21:10:49.367Z,3.43
2018-01-02T21:13:16.973Z,3.67
2018-01-02T21:15:44.608Z,3.30
2018-01-02T21:18:13.082Z,3.10
2018-01-02T21:20:41.501Z,3.00
2018-01-02T21:23:09.160Z,2.67
2018-01-02T21:25:37.744Z,2.80
2018-01-02T21:28:05.420Z,3.40
2018-01-02T21:30:33.092Z,2.73
2018-01-02T21:33:00.696Z,2.40
2018-01-02T21:35:29.071Z,2.63
2018-01-02T21:37:57.392Z,4.10
2018-01-02T21:40:25.203Z,2.73
2018-01-02T21:42:53.654Z,1.93
2018-01-02T21:45:21.401Z,2.37
2018-01-02T21:47:49.072Z,2.83
2018-01-02T21:50:16.733Z,2.67
2018-01-02T21:52:44.321Z,1.83
2018-01-02T21:55:12.017Z,2.10
2018-01-02T21:57:39.625Z,2.43
2018-01-02T22:00:07.217Z,2.43
2018-01-02T22:02:35.778Z,2.60
2018-01-02T22:05:03.371Z,1.80
2018-01-02T22:07:31.124Z,1.83
2018-01-02T22:09:59.498Z,1.70
2018-01-02T22:12:27.972Z,2.33
2018-01-02T22:14:57.188Z,2.60
2018-01-02T22:17:24.812Z,2.60
2018-01-02T22:19:52.440Z,2.27
2018-01-02T22:22:20.034Z,1.77
2018-01-02T22:24:47.640Z,2.00
2018-01-02T22:27:15.203Z,2.40
2018-01-02T22:29:42.765Z,2.03
2018-01-02T22:32:10.268Z,2.00
2018-01-02T22:34:37.821Z,1.70
2018-01-02T22:37:05.332Z,1.40
2018-01-02T22:39:32.846Z,1.60
2018-01-02T22:42:00.401Z,1.80
2018-01-02T22:44:28.675Z,2.90
2018-01-02T22:46:56.186Z,1.83
2018-01-02T22:49:23.719Z,1.60
2018-01-02T22:51:52.033Z,1.43
2018-01-02T22:54:19.563Z,2.50
2018-01-02T22:56:47.072Z,1.33
2018-01-02T22:59:14.634Z,1.50
2018-01-02T23:01:42.159Z,1.70
2018-01-02T23:04:09.668Z,2.10
2018-01-02T23:06:37.976Z,1.47
2018-01-02T23:09:05.492Z,1.83
2018-01-02T23:11:33.048Z,1.70
2018-01-02T23:14:06.704Z,1.60
2018-01-02T23:16:34.195Z,1.43
2018-01-02T23:19:01.745Z,1.50
2018-01-02T23:21:29.273Z,1.43
2018-01-02T23:23:56.772Z,1.63
2018-01-02T23:26:25.056Z,1.50
2018-01-02T23:28:52.565Z,1.97
2018-01-02T23:31:20.089Z,2.03
2018-01-02T23:33:48.349Z,1.50
2018-01-02T23:36:15.892Z,1.37
2018-01-02T23:38:43.379Z,1.10
2018-01-02T23:41:10.893Z,1.60
2018-01-02T23:43:38.441Z,1.93
2018-01-02T23:46:05.961Z,1.43
2018-01-02T23:48:34.259Z,1.33
2018-01-02T23:51:01.756Z,1.53
2018-01-02T23:53:29.243Z,1.83
2018-01-02T23:55:57.520Z,1.50
2018-01-02T23:58:25.792Z,1.10
